Zhijiang, China
Current Conditions -  °F | °C
As of 4:00 PM on Friday 19 Dec 2014 (Local Time) from ZGKL Reporting Station
Clear Clear  
Wind Chill: 61°   Ceiling: Unl
Heat Index: 61°   Visibility: 6mi
Dew Point: 36°   Wind: 7mph
Humidity: 39%   Direction: 110°ESE
Pressure: 30.21"   Gusts: NA
Location:  27.45°N, 109.68°E
Report Text: ZGKL 190800Z 11003MPS 080V140 CAVOK 16/02 Q1023 NOSIG
Loading
Personal Weather Stations






























Interactive Weather Map New forecast layout! Learn more

10-Day Weather Forecast

Advertisements
Track Severe Weather on mobile